Chico, CA (95973)

7:50 AM PDT on September 23, 2014 (GMT -0700)
The Massas - West Keefer Rd | Change Station
CLOSE
Current Station
Personal Weather Station
Location: Chico, CA
Elevation: 230 ft
Nearby Weather Stations

Elev 230 ft 39.81 °N, 121.91 °W | Updated 45 seconds ago

Mostly Cloudy
Mostly Cloudy
62.3 °F
Feels Like 62.3 °F
N
0.0
Wind Variable Wind from SSE
Gusts 0.0 mph

Today
High -- | Low -- °F
--% Chance of Precip.
Yesterday
High -- | Low -- °F
Precip. -- in
6:56 AM 7:02 PM
Waning Crescent, 0% visible
Pressure 29.96 in
Visibility 10.0 miles
Clouds Scattered Clouds 18000 ft
Mostly Cloudy 25000 ft
Dew Point 56 °F
Humidity 79%
Rainfall 0.00 in
Snow Depth 0 in , 0 in , 0 in
UV 0 out of 12
Pollen 6.00 out of 12
Ozone Good
Flu Activity Not available.
METAR KCIC 231350Z 13005KT 10SM SCT180 BKN250 18/12 A2996 RMK FU_ALQDS

More Conditions Fewer Conditions

Pressure 29.96 in
Visibility 10.0 miles
Clouds Scattered Clouds 18000 ft
Mostly Cloudy 25000 ft
Dew Point 56 °F
Humidity 79%
Rainfall 0.00 in
Snow Depth 0 in , 0 in , 0 in
UV 0 out of 12
Pollen 6.00 out of 12
Ozone Good
Flu Activity Not available.
METAR KCIC 231350Z 13005KT 10SM SCT180 BKN250 18/12 A2996 RMK FU_ALQDS

More Conditions Fewer Conditions

10-Day Weather Forecast

Almanac

Astronomy

Sep. 23, 2014 Rise Set
Actual Time 6:56 AM PDT 7:02 PM PDT
Civil Twilight 6:29 AM PDT 7:29 PM PDT
Nautical Twilight 5:57 AM PDT 8:00 PM PDT
Astronomical Twilight 5:25 AM PDT 8:32 PM PDT
Moon 6:25 AM PDT 6:44 PM PDT
Length of Visible Light 13h 00m
Length of Day
12h 06m
Tomorrow will be 2m 35s shorter.
Waning Crescent, 0% of the Moon is Illuminated
Today
Waning Crescent
Sep 24
New
Oct 1
First Quarter
Oct 8
Full
Oct 15
Last Quarter

Today's Extremes

State Highs State Lows

Community

WunderPhotos

Upload Photos

1,755,711 photos uploaded!

Nearby

Air Quality

  Air Quality AQ Index Pollutant
Yesterday Very Unhealthy
PM2.5
Yesterday Moderate
OZONE
Current Good
OZONE
Tuesday Unhealthy
OZONE
Wednesday Unhealthy
OZONE
Thursday Good
OZONE
Friday Good
OZONE
Saturday Good
OZONE

Snow Depth

Station Depth Elevation
Rubicon #2 0 in 7500 ft
Tahoe City Cross 0 in 6750 ft
Hagan's Meadow 0 in 8000 ft
Echo Peak 0 in 7800 ft
Heavenly Valley 0 in 8850 ft

Earthquake Activity

City Distance Mag. Time & Date
Yountville, California 100 miles 2.6 1:17 PM PDT
2014-09-21
Minimum magnitude displayed is 2.5.

Coastal Water Temperatures

Place Temperature
No Stations Reporting

Nearby Weather Stations